Time;durP1;ratioP1;P1;durP2;ratioP2;P2;SDS_P1;SDS_P2;PMS_P1;PMS_P2;Temp;Humidity;BMP_temperature;BMP_pressure;BME280_temperature;BME280_humidity;BME280_pressure;Samples;Min_cycle;Max_cycle;Signal;HPM_P1;HPM_P2
2021/12/18 00:00:52;;;;;;;10.35;3.80;;;;;;;;;;5056650;28;20080;-57
2021/12/18 00:03:19;;;;;;;8.57;3.63;;;;;;;;;;5061728;28;20155;-58
2021/12/18 00:05:46;;;;;;;8.10;3.58;;;;;;;;;;5058006;28;20094;-58
2021/12/18 00:08:12;;;;;;;9.00;3.17;;;;;;;;;;5060340;28;20056;-59
2021/12/18 00:10:39;;;;;;;7.40;3.45;;;;;;;;;;5058508;28;20052;-59
2021/12/18 00:13:07;;;;;;;11.43;3.00;;;;;;;;;;5064555;28;20132;-58
2021/12/18 00:15:33;;;;;;;7.63;3.37;;;;;;;;;;5064695;28;20048;-58
2021/12/18 00:18:00;;;;;;;9.02;3.25;;;;;;;;;;5045448;28;20060;-58
2021/12/18 00:20:27;;;;;;;8.40;3.33;;;;;;;;;;5066532;28;20102;-58
2021/12/18 00:22:56;;;;;;;5.95;2.78;;;;;;;;;;5062326;28;20079;-59
2021/12/18 00:25:22;;;;;;;;;;;;;;;;;;5062515;28;20044;-58
2021/12/18 00:27:49;;;;;;;10.70;3.45;;;;;;;;;;5060776;28;20010;-58
2021/12/18 00:30:18;;;;;;;9.55;3.70;;;;;;;;;;5063964;28;20056;-57
2021/12/18 00:32:47;;;;;;;7.50;3.03;;;;;;;;;;5038848;28;20161;-57
2021/12/18 00:35:13;;;;;;;8.88;3.45;;;;;;;;;;5039747;28;20045;-58
2021/12/18 00:37:40;;;;;;;8.75;3.40;;;;;;;;;;5039679;28;20049;-57
2021/12/18 00:40:11;;;;;;;8.45;3.22;;;;;;;;;;5044029;28;20110;-58
2021/12/18 00:42:43;;;;;;;8.15;3.28;;;;;;;;;;5038376;28;20140;-58
2021/12/18 00:45:10;;;;;;;10.23;3.67;;;;;;;;;;5041907;28;20061;-58
2021/12/18 00:47:38;;;;;;;10.27;3.50;;;;;;;;;;5057078;28;20063;-57
2021/12/18 00:50:06;;;;;;;6.65;2.92;;;;;;;;;;5046359;28;20553;-58
2021/12/18 00:52:33;;;;;;;10.57;3.92;;;;;;;;;;5040776;28;20144;-57
2021/12/18 00:55:00;;;;;;;9.02;3.42;;;;;;;;;;5046441;28;20063;-57
2021/12/18 00:57:26;;;;;;;9.85;3.28;;;;;;;;;;5041918;28;20056;-58
2021/12/18 00:59:58;;;;;;;9.13;3.70;;;;;;;;;;5064291;28;20136;-58
2021/12/18 01:02:25;;;;;;;10.05;4.20;;;;;;;;;;5042876;28;20052;-58
2021/12/18 01:04:56;;;;;;;10.57;4.30;;;;;;;;;;5042886;28;20151;-58
2021/12/18 01:07:23;;;;;;;8.95;3.90;;;;;;;;;;5047219;28;20057;-58
2021/12/18 01:10:00;;;;;;;7.13;3.30;;;;;;;;;;5042466;28;20045;-58
2021/12/18 01:12:32;;;;;;;11.23;4.18;;;;;;;;;;5063456;28;20136;-58
2021/12/18 01:15:10;;;;;;;7.30;3.00;;;;;;;;;;5041660;28;20071;-58
2021/12/18 01:23:07;;;;;;;10.73;4.10;;;;;;;;;;5063228;28;20060;-59
2021/12/18 01:25:33;;;;;;;7.03;3.05;;;;;;;;;;5061884;28;20056;-58
2021/12/18 01:27:59;;;;;;;6.35;2.80;;;;;;;;;;5061594;28;20048;-58
2021/12/18 01:30:26;;;;;;;10.10;3.92;;;;;;;;;;5058466;28;20056;-58
2021/12/18 01:32:54;;;;;;;6.72;2.90;;;;;;;;;;5061111;28;20040;-58
2021/12/18 01:35:22;;;;;;;10.73;3.88;;;;;;;;;;5060823;28;20069;-58
2021/12/18 01:37:50;;;;;;;10.60;4.20;;;;;;;;;;5065793;28;20053;-58
2021/12/18 01:40:17;;;;;;;10.75;3.92;;;;;;;;;;5062155;28;20097;-59
2021/12/18 01:43:59;;;;;;;11.18;3.78;;;;;;;;;;5064036;28;20068;-57
2021/12/18 01:46:01;;;;;;;7.07;2.17;;;;;;;;;;5063101;28;20087;-57
2021/12/18 01:51:21;;;;;;;10.98;3.80;;;;;;;;;;5058453;28;20075;-58
2021/12/18 01:53:48;;;;;;;9.27;3.72;;;;;;;;;;5077894;28;20057;-59
2021/12/18 01:56:14;;;;;;;7.25;2.85;;;;;;;;;;5060588;28;20074;-58
2021/12/18 01:58:44;;;;;;;8.75;2.83;;;;;;;;;;5065625;28;20142;-58
2021/12/18 02:01:10;;;;;;;8.93;3.13;;;;;;;;;;5040053;28;20063;-58
2021/12/18 02:03:38;;;;;;;10.63;3.15;;;;;;;;;;5039735;28;20057;-58
2021/12/18 02:06:04;;;;;;;7.57;2.95;;;;;;;;;;5038586;28;20069;-58
2021/12/18 02:08:34;;;;;;;7.93;3.10;;;;;;;;;;5059147;28;20128;-58
2021/12/18 02:11:11;;;;;;;7.97;3.00;;;;;;;;;;5033103;28;20057;-58
2021/12/18 02:13:59;;;;;;;5.93;2.13;;;;;;;;;;5042481;28;20098;-58
2021/12/18 02:21:55;;;;;;;6.32;2.28;;;;;;;;;;5041874;28;20068;-57
2021/12/18 02:24:25;;;;;;;6.37;2.07;;;;;;;;;;5058391;28;20063;-57
2021/12/18 02:26:51;;;;;;;5.40;2.05;;;;;;;;;;5038610;28;20067;-58
2021/12/18 02:29:18;;;;;;;8.43;3.00;;;;;;;;;;5044908;28;20135;-58
2021/12/18 02:31:45;;;;;;;4.85;2.10;;;;;;;;;;5040488;28;20053;-57
2021/12/18 02:34:17;;;;;;;6.57;2.65;;;;;;;;;;5042217;28;20110;-57
2021/12/18 02:36:46;;;;;;;7.90;3.00;;;;;;;;;;5041347;28;20048;-57
2021/12/18 02:39:24;;;;;;;5.25;2.15;;;;;;;;;;5061787;28;20055;-57
2021/12/18 02:42:08;;;;;;;5.75;2.25;;;;;;;;;;5050154;28;20052;-58
2021/12/18 02:44:35;;;;;;;7.40;2.88;;;;;;;;;;5061276;28;20056;-58
2021/12/18 02:47:01;;;;;;;7.88;2.53;;;;;;;;;;5048006;28;20140;-57
2021/12/18 02:49:28;;;;;;;5.13;2.08;;;;;;;;;;5045118;28;20064;-57
2021/12/18 02:51:55;;;;;;;9.65;3.50;;;;;;;;;;5039811;28;20570;-58
2021/12/18 02:54:22;;;;;;;9.32;3.30;;;;;;;;;;5045209;28;20107;-58
2021/12/18 02:56:49;;;;;;;5.87;2.63;;;;;;;;;;5041961;28;20094;-58
2021/12/18 02:59:16;;;;;;;8.43;3.22;;;;;;;;;;5040949;28;20120;-58
2021/12/18 03:01:43;;;;;;;7.20;3.05;;;;;;;;;;5045164;28;20061;-58
2021/12/18 03:04:17;;;;;;;9.45;3.20;;;;;;;;;;5042803;28;20112;-58
2021/12/18 03:06:47;;;;;;;5.68;2.20;;;;;;;;;;5046270;28;20056;-57
2021/12/18 03:23:18;;;;;;;9.30;3.10;;;;;;;;;;5042854;28;20056;-58
2021/12/18 03:25:44;;;;;;;7.30;2.75;;;;;;;;;;5026262;28;20056;-57
2021/12/18 03:28:14;;;;;;;7.70;2.92;;;;;;;;;;5024456;28;20140;-58
2021/12/18 03:30:40;;;;;;;6.22;2.60;;;;;;;;;;5061322;28;20057;-58
2021/12/18 03:33:07;;;;;;;7.32;2.75;;;;;;;;;;5062883;28;20146;-57
2021/12/18 03:35:33;;;;;;;8.95;3.28;;;;;;;;;;5058464;28;20048;-57
2021/12/18 03:38:00;;;;;;;5.88;2.33;;;;;;;;;;5045585;28;20147;-57
2021/12/18 03:40:27;;;;;;;6.53;2.47;;;;;;;;;;5027551;28;20064;-58
2021/12/18 03:42:55;;;;;;;8.23;2.90;;;;;;;;;;5025746;28;20061;-60
2021/12/18 03:45:24;;;;;;;10.10;3.15;;;;;;;;;;5035527;28;20079;-58
2021/12/18 03:47:51;;;;;;;8.93;3.40;;;;;;;;;;5045532;28;20061;-57
2021/12/18 03:50:17;;;;;;;8.48;3.08;;;;;;;;;;5041949;28;20071;-57
2021/12/18 03:52:45;;;;;;;6.22;2.47;;;;;;;;;;5046004;28;20106;-58
2021/12/18 03:55:12;;;;;;;6.45;2.38;;;;;;;;;;5035633;28;20054;-57
2021/12/18 03:57:38;;;;;;;8.80;2.97;;;;;;;;;;5027026;28;20140;-58
2021/12/18 04:00:06;;;;;;;8.80;2.78;;;;;;;;;;5027740;28;20056;-57
2021/12/18 04:02:34;;;;;;;5.82;2.17;;;;;;;;;;5045544;28;20056;-57
2021/12/18 04:05:01;;;;;;;7.07;2.50;;;;;;;;;;5041884;28;20056;-57
2021/12/18 04:07:27;;;;;;;7.38;2.58;;;;;;;;;;5045380;28;20084;-58
2021/12/18 04:09:54;;;;;;;5.28;2.03;;;;;;;;;;5042178;28;20083;-57
2021/12/18 04:12:22;;;;;;;5.70;2.22;;;;;;;;;;5030273;28;20120;-57
2021/12/18 04:14:48;;;;;;;8.88;2.53;;;;;;;;;;5045780;28;20049;-58
2021/12/18 04:17:17;;;;;;;5.45;2.40;;;;;;;;;;5023348;28;20058;-57
2021/12/18 04:19:45;;;;;;;6.95;2.25;;;;;;;;;;5025855;28;20087;-57
2021/12/18 04:22:11;;;;;;;8.15;2.38;;;;;;;;;;5041701;28;20063;-57
2021/12/18 04:24:38;;;;;;;6.85;2.55;;;;;;;;;;5049966;28;20053;-57
2021/12/18 04:27:04;;;;;;;6.45;2.50;;;;;;;;;;5032231;28;20053;-58
2021/12/18 04:29:31;;;;;;;5.75;2.30;;;;;;;;;;5029615;28;20084;-58
2021/12/18 04:31:57;;;;;;;5.43;2.17;;;;;;;;;;5035861;28;20096;-58
2021/12/18 04:34:24;;;;;;;3.78;1.73;;;;;;;;;;5048297;28;20041;-57
2021/12/18 04:36:52;;;;;;;4.90;1.88;;;;;;;;;;5037602;28;20096;-57
2021/12/18 04:39:18;;;;;;;6.82;2.38;;;;;;;;;;5036808;28;20072;-58
2021/12/18 04:41:51;;;;;;;6.07;2.10;;;;;;;;;;5042197;28;20050;-57
2021/12/18 04:44:18;;;;;;;6.65;2.10;;;;;;;;;;5032682;28;20117;-57
2021/12/18 04:46:45;;;;;;;4.82;1.83;;;;;;;;;;5031723;28;20124;-58
2021/12/18 04:49:13;;;;;;;5.50;2.28;;;;;;;;;;5049041;28;20044;-58
2021/12/18 04:51:39;;;;;;;5.15;1.90;;;;;;;;;;5045328;28;20053;-57
2021/12/18 04:54:08;;;;;;;4.35;1.52;;;;;;;;;;5048466;28;20394;-57
2021/12/18 04:56:35;;;;;;;5.53;2.00;;;;;;;;;;5048494;28;20064;-57
2021/12/18 04:59:02;;;;;;;5.38;1.85;;;;;;;;;;5063657;28;20060;-57
2021/12/18 05:01:29;;;;;;;6.32;2.13;;;;;;;;;;5048758;28;20060;-58
2021/12/18 05:03:55;;;;;;;6.28;2.10;;;;;;;;;;5061513;28;20059;-57
2021/12/18 05:06:22;;;;;;;6.35;2.22;;;;;;;;;;5048389;28;20156;-57
2021/12/18 05:08:51;;;;;;;5.93;2.22;;;;;;;;;;5044424;28;20060;-57
2021/12/18 05:11:19;;;;;;;5.10;1.73;;;;;;;;;;5048013;28;20056;-58
2021/12/18 05:13:46;;;;;;;4.70;1.70;;;;;;;;;;5043661;28;20079;-57
2021/12/18 05:16:13;;;;;;;5.15;1.63;;;;;;;;;;5048251;28;20323;-58
2021/12/18 05:18:39;;;;;;;4.03;1.63;;;;;;;;;;5044523;28;20057;-59
2021/12/18 05:21:06;;;;;;;9.80;1.90;;;;;;;;;;5048137;28;20052;-58
2021/12/18 05:23:33;;;;;;;4.60;1.85;;;;;;;;;;5036902;28;20053;-58
2021/12/18 05:25:59;;;;;;;5.88;2.13;;;;;;;;;;5021633;28;20126;-57
2021/12/18 05:28:27;;;;;;;4.32;1.65;;;;;;;;;;5029239;28;20157;-57
2021/12/18 05:30:53;;;;;;;4.93;2.00;;;;;;;;;;5048099;28;20099;-58
2021/12/18 05:33:20;;;;;;;4.88;1.63;;;;;;;;;;5044126;28;20061;-58
2021/12/18 05:35:47;;;;;;;4.88;2.03;;;;;;;;;;5048567;28;20057;-57
2021/12/18 05:38:13;;;;;;;4.28;1.58;;;;;;;;;;5048123;28;20213;-57
2021/12/18 05:40:40;;;;;;;4.88;1.75;;;;;;;;;;5039800;28;20052;-58
2021/12/18 05:43:07;;;;;;;5.20;1.60;;;;;;;;;;5047821;28;20143;-57
2021/12/18 05:45:35;;;;;;;8.38;2.15;;;;;;;;;;5044512;28;20142;-57
2021/12/18 05:48:02;;;;;;;6.32;1.88;;;;;;;;;;5042637;28;20063;-57
2021/12/18 05:50:29;;;;;;;5.85;1.90;;;;;;;;;;5046357;28;20058;-57
2021/12/18 05:52:58;;;;;;;4.57;1.60;;;;;;;;;;5028137;28;20063;-57
2021/12/18 05:55:25;;;;;;;4.43;1.60;;;;;;;;;;5037497;28;20053;-57
2021/12/18 05:57:52;;;;;;;4.20;1.70;;;;;;;;;;5047907;28;20135;-57
2021/12/18 06:00:19;;;;;;;5.60;1.58;;;;;;;;;;5044140;28;20521;-57
2021/12/18 06:02:47;;;;;;;5.15;1.67;;;;;;;;;;5048218;28;20053;-57
2021/12/18 06:05:13;;;;;;;4.32;1.63;;;;;;;;;;5037018;28;20049;-57
2021/12/18 06:07:52;;;;;;;7.40;1.85;;;;;;;;;;5028080;28;20053;-54
2021/12/18 06:10:19;;;;;;;4.80;1.48;;;;;;;;;;5032858;28;20048;-57
2021/12/18 06:12:48;;;;;;;4.50;1.60;;;;;;;;;;5050019;28;20140;-57
2021/12/18 06:15:14;;;;;;;4.10;1.50;;;;;;;;;;5039834;28;20068;-58
2021/12/18 06:17:41;;;;;;;3.33;1.52;;;;;;;;;;5021387;28;20119;-57
2021/12/18 06:20:10;;;;;;;5.20;1.48;;;;;;;;;;5027664;28;20055;-57
2021/12/18 06:22:37;;;;;;;3.08;1.25;;;;;;;;;;5027632;28;20046;-57
2021/12/18 06:25:04;;;;;;;4.25;1.75;;;;;;;;;;5041590;28;20209;-57
2021/12/18 06:27:30;;;;;;;3.08;1.15;;;;;;;;;;5045720;28;20080;-57
2021/12/18 06:29:57;;;;;;;1.98;0.90;;;;;;;;;;5047136;28;20049;-57
2021/12/18 06:32:24;;;;;;;2.63;1.20;;;;;;;;;;5043082;28;20060;-57
2021/12/18 06:34:50;;;;;;;3.05;1.20;;;;;;;;;;5046807;28;20052;-57
2021/12/18 06:37:18;;;;;;;2.90;1.10;;;;;;;;;;5039827;28;20064;-57
2021/12/18 06:39:44;;;;;;;3.08;1.10;;;;;;;;;;5034463;28;20144;-57
2021/12/18 06:42:11;;;;;;;2.35;0.90;;;;;;;;;;5044174;28;20132;-57
2021/12/18 06:44:37;;;;;;;4.13;1.30;;;;;;;;;;5045722;28;20072;-57
2021/12/18 06:47:04;;;;;;;4.32;1.52;;;;;;;;;;5033260;28;20056;-57
2021/12/18 06:49:30;;;;;;;2.45;1.08;;;;;;;;;;5026026;28;20140;-57
2021/12/18 06:51:57;;;;;;;3.42;1.00;;;;;;;;;;5030104;28;20118;-57
2021/12/18 06:54:25;;;;;;;2.17;1.00;;;;;;;;;;5046148;28;20195;-58
2021/12/18 06:56:51;;;;;;;2.80;0.90;;;;;;;;;;5038388;28;20085;-57
2021/12/18 06:59:18;;;;;;;3.55;1.10;;;;;;;;;;5025908;28;20119;-57
2021/12/18 07:01:45;;;;;;;2.38;0.82;;;;;;;;;;5024575;28;20128;-57
2021/12/18 07:04:13;;;;;;;1.95;0.93;;;;;;;;;;5046810;28;20144;-58
2021/12/18 07:06:39;;;;;;;3.88;0.88;;;;;;;;;;5061810;28;20084;-57
2021/12/18 07:09:05;;;;;;;3.42;1.40;;;;;;;;;;5045099;28;20084;-56
2021/12/18 07:11:33;;;;;;;3.15;1.20;;;;;;;;;;5045110;28;20048;-57
2021/12/18 07:14:00;;;;;;;5.07;1.42;;;;;;;;;;5039381;28;20295;-56
2021/12/18 07:16:27;;;;;;;3.92;1.40;;;;;;;;;;5044455;28;20135;-57
2021/12/18 07:18:53;;;;;;;3.25;1.17;;;;;;;;;;5041186;28;20056;-57
2021/12/18 07:21:20;;;;;;;2.05;1.00;;;;;;;;;;5045799;28;20085;-58
2021/12/18 07:23:47;;;;;;;2.30;1.23;;;;;;;;;;5042509;28;20052;-57
2021/12/18 07:26:14;;;;;;;1.90;0.80;;;;;;;;;;5045038;28;20130;-57
2021/12/18 07:28:42;;;;;;;2.55;1.17;;;;;;;;;;5042863;28;20131;-57
2021/12/18 07:31:08;;;;;;;2.13;1.00;;;;;;;;;;5044150;28;20084;-57
2021/12/18 07:33:37;;;;;;;3.55;1.38;;;;;;;;;;5042715;28;20048;-57
2021/12/18 07:36:08;;;;;;;2.22;1.02;;;;;;;;;;5047845;28;20106;-57
2021/12/18 07:38:36;;;;;;;7.32;1.20;;;;;;;;;;5042997;28;20064;-57
2021/12/18 07:41:04;;;;;;;3.10;1.15;;;;;;;;;;5049529;28;20091;-57
2021/12/18 07:43:30;;;;;;;3.22;1.20;;;;;;;;;;5058246;28;20088;-56
2021/12/18 07:45:58;;;;;;;2.15;0.80;;;;;;;;;;5062476;28;20052;-57
2021/12/18 07:48:25;;;;;;;4.87;1.67;;;;;;;;;;5058316;28;20059;-56
2021/12/18 07:50:51;;;;;;;4.13;1.27;;;;;;;;;;5060529;28;20052;-57
2021/12/18 07:53:18;;;;;;;3.28;1.20;;;;;;;;;;5062608;28;20139;-56
2021/12/18 07:55:45;;;;;;;2.72;1.02;;;;;;;;;;5057217;28;20060;-57
2021/12/18 07:58:11;;;;;;;2.53;1.02;;;;;;;;;;5060159;28;20053;-56
2021/12/18 08:00:38;;;;;;;2.47;1.10;;;;;;;;;;5057790;28;20143;-57
2021/12/18 08:03:06;;;;;;;3.45;1.15;;;;;;;;;;5083979;28;20138;-58
2021/12/18 08:05:32;;;;;;;2.67;1.08;;;;;;;;;;5068421;28;20049;-58
2021/12/18 08:07:59;;;;;;;2.22;1.00;;;;;;;;;;5066126;28;20121;-59
2021/12/18 08:10:25;;;;;;;2.47;1.20;;;;;;;;;;5064289;28;20119;-59
2021/12/18 08:12:57;;;;;;;2.45;1.05;;;;;;;;;;5065961;28;20094;-58
2021/12/18 08:15:24;;;;;;;2.40;1.00;;;;;;;;;;5054706;28;20139;-59
2021/12/18 08:17:50;;;;;;;3.00;1.02;;;;;;;;;;5068166;28;20053;-59
2021/12/18 08:20:19;;;;;;;1.02;0.68;;;;;;;;;;5065116;28;20056;-58
2021/12/18 08:22:46;;;;;;;2.47;1.05;;;;;;;;;;5068564;28;20063;-58
2021/12/18 08:25:13;;;;;;;2.40;0.93;;;;;;;;;;5061492;28;20072;-58
2021/12/18 08:27:39;;;;;;;2.25;1.00;;;;;;;;;;5065353;28;20056;-57
2021/12/18 08:30:06;;;;;;;2.90;1.08;;;;;;;;;;5065244;28;20072;-57
2021/12/18 08:32:43;;;;;;;2.42;0.68;;;;;;;;;;5068615;28;20044;-57
2021/12/18 08:35:10;;;;;;;1.85;0.82;;;;;;;;;;5082943;28;20055;-57
2021/12/18 08:37:38;;;;;;;2.03;0.82;;;;;;;;;;5067212;28;20152;-58
2021/12/18 08:40:05;;;;;;;2.07;1.07;;;;;;;;;;5068968;28;20056;-57
2021/12/18 08:42:31;;;;;;;2.63;1.00;;;;;;;;;;5063812;28;20375;-57
2021/12/18 08:44:58;;;;;;;6.55;1.20;;;;;;;;;;5068188;28;20053;-57
2021/12/18 08:47:25;;;;;;;3.95;1.33;;;;;;;;;;5065227;28;20127;-57
2021/12/18 08:49:51;;;;;;;5.75;1.23;;;;;;;;;;5068752;28;20080;-57
2021/12/18 08:52:19;;;;;;;2.90;1.00;;;;;;;;;;5064929;28;20056;-57
2021/12/18 08:54:47;;;;;;;4.45;1.17;;;;;;;;;;5068488;28;20048;-57
2021/12/18 08:57:13;;;;;;;2.03;0.97;;;;;;;;;;5064721;28;20139;-57
2021/12/18 08:59:40;;;;;;;5.03;0.98;;;;;;;;;;5061636;28;20298;-57
2021/12/18 09:02:11;;;;;;;3.90;1.33;;;;;;;;;;5081881;28;20104;-57
2021/12/18 09:04:38;;;;;;;6.25;1.20;;;;;;;;;;5068725;28;20048;-57
2021/12/18 09:07:04;;;;;;;4.03;1.08;;;;;;;;;;5058568;28;20056;-57
2021/12/18 09:09:31;;;;;;;2.33;1.02;;;;;;;;;;5069987;28;20052;-57
2021/12/18 09:12:09;;;;;;;3.80;1.20;;;;;;;;;;5066925;28;21401;-57
2021/12/18 09:14:36;;;;;;;2.65;1.02;;;;;;;;;;5071789;28;20057;-57
2021/12/18 09:17:03;;;;;;;3.17;0.85;;;;;;;;;;5067800;28;20052;-57
2021/12/18 09:19:29;;;;;;;2.05;0.85;;;;;;;;;;5071517;28;20053;-57
2021/12/18 09:21:59;;;;;;;2.22;0.90;;;;;;;;;;5069496;28;20098;-57
2021/12/18 09:24:26;;;;;;;3.33;0.80;;;;;;;;;;5068998;28;20060;-57
2021/12/18 09:26:55;;;;;;;;;;;;;;;;;;5072902;28;20478;-57
2021/12/18 09:29:22;;;;;;;2.47;0.90;;;;;;;;;;5065382;28;19928;-57
2021/12/18 09:31:49;;;;;;;2.78;0.90;;;;;;;;;;5068684;28;20129;-57
2021/12/18 09:34:15;;;;;;;2.22;1.05;;;;;;;;;;5065928;28;20082;-57
2021/12/18 09:36:42;;;;;;;1.95;0.88;;;;;;;;;;5070812;28;20054;-57
2021/12/18 09:39:09;;;;;;;1.42;0.73;;;;;;;;;;5068214;28;20399;-56
2021/12/18 09:41:35;;;;;;;1.42;0.90;;;;;;;;;;5071451;28;20189;-57
2021/12/18 09:44:01;;;;;;;0.98;0.70;;;;;;;;;;5067494;28;20048;-57
2021/12/18 09:46:30;;;;;;;1.75;0.85;;;;;;;;;;5071045;28;20090;-56
2021/12/18 09:48:57;;;;;;;1.08;0.63;;;;;;;;;;5060086;28;20072;-57
2021/12/18 09:51:27;;;;;;;1.73;0.70;;;;;;;;;;5051078;28;20081;-57
2021/12/18 09:54:06;;;;;;;2.80;0.95;;;;;;;;;;5054243;28;20056;-58
2021/12/18 09:56:32;;;;;;;1.30;0.70;;;;;;;;;;5070994;28;20106;-57
2021/12/18 09:58:59;;;;;;;1.27;0.70;;;;;;;;;;5067864;28;20053;-57
2021/12/18 10:01:26;;;;;;;1.90;0.90;;;;;;;;;;5071082;28;20056;-58
2021/12/18 10:04:02;;;;;;;1.25;0.70;;;;;;;;;;5067302;28;20056;-57
2021/12/18 10:06:29;;;;;;;1.85;0.70;;;;;;;;;;5070997;28;20130;-57
2021/12/18 10:08:59;;;;;;;1.08;0.50;;;;;;;;;;5067882;28;20135;-57
2021/12/18 10:11:25;;;;;;;1.33;0.73;;;;;;;;;;5069070;28;20053;-57
2021/12/18 10:13:57;;;;;;;1.10;0.60;;;;;;;;;;5086681;28;20131;-57
2021/12/18 10:16:24;;;;;;;2.05;0.60;;;;;;;;;;5068632;28;20048;-57
2021/12/18 10:18:52;;;;;;;1.55;0.60;;;;;;;;;;5070738;28;20056;-57
2021/12/18 10:21:20;;;;;;;3.17;0.93;;;;;;;;;;5066984;28;20048;-57
2021/12/18 10:23:51;;;;;;;1.67;0.90;;;;;;;;;;5070595;28;20088;-57
2021/12/18 10:26:38;;;;;;;1.20;0.52;;;;;;;;;;5064979;28;20052;-57
2021/12/18 10:29:05;;;;;;;1.98;0.75;;;;;;;;;;5070716;28;20064;-57
2021/12/18 10:31:39;;;;;;;1.80;0.60;;;;;;;;;;5050965;28;20057;-57
2021/12/18 10:34:13;;;;;;;2.50;0.70;;;;;;;;;;5049841;28;20059;-57
2021/12/18 10:36:41;;;;;;;1.13;0.60;;;;;;;;;;5061330;28;20059;-57
2021/12/18 10:39:08;;;;;;;1.20;0.70;;;;;;;;;;5070624;28;20485;-57
2021/12/18 10:41:35;;;;;;;1.60;0.60;;;;;;;;;;5066504;28;20108;-56
2021/12/18 10:44:03;;;;;;;1.27;0.80;;;;;;;;;;5069941;28;20135;-57
2021/12/18 10:46:30;;;;;;;1.67;0.88;;;;;;;;;;5063365;28;20101;-57
2021/12/18 10:49:01;;;;;;;1.25;0.77;;;;;;;;;;5070277;28;20135;-57
2021/12/18 10:51:30;;;;;;;1.30;0.70;;;;;;;;;;5045608;28;20041;-57
2021/12/18 10:54:02;;;;;;;1.27;0.57;;;;;;;;;;5050073;28;20051;-57
2021/12/18 10:56:32;;;;;;;1.27;0.60;;;;;;;;;;5043989;28;20045;-58
2021/12/18 10:58:58;;;;;;;0.80;0.60;;;;;;;;;;5046755;28;20132;-57
2021/12/18 11:01:25;;;;;;;1.08;0.60;;;;;;;;;;5048210;28;20187;-57
2021/12/18 11:03:58;;;;;;;1.08;0.50;;;;;;;;;;5049838;28;20075;-57
2021/12/18 11:06:26;;;;;;;1.17;0.50;;;;;;;;;;5042986;28;20061;-57
2021/12/18 11:08:59;;;;;;;2.15;0.80;;;;;;;;;;5029512;28;20054;-57
2021/12/18 11:14:08;;;;;;;0.98;0.68;;;;;;;;;;4997485;28;20055;-57
2021/12/18 11:16:36;;;;;;;1.25;0.60;;;;;;;;;;5028907;28;20156;-57
2021/12/18 11:19:03;;;;;;;0.82;0.60;;;;;;;;;;5041286;28;20549;-57
2021/12/18 11:21:31;;;;;;;1.08;0.50;;;;;;;;;;5029484;28;20511;-57
2021/12/18 11:24:01;;;;;;;1.10;0.65;;;;;;;;;;5042565;28;20140;-57
2021/12/18 11:26:33;;;;;;;0.85;0.50;;;;;;;;;;5061896;28;20054;-58
2021/12/18 11:29:01;;;;;;;1.80;0.73;;;;;;;;;;5046318;28;20053;-57
2021/12/18 11:31:27;;;;;;;0.55;0.50;;;;;;;;;;5048983;28;20045;-57
2021/12/18 11:33:56;;;;;;;1.70;0.70;;;;;;;;;;5043508;28;20056;-57
2021/12/18 11:36:22;;;;;;;;;;;;;;;;;;5046614;28;20073;-57
2021/12/18 11:38:52;;;;;;;0.75;0.40;;;;;;;;;;5045807;28;20035;-56
2021/12/18 11:41:19;;;;;;;0.93;0.60;;;;;;;;;;5048737;28;20049;-57
2021/12/18 11:43:49;;;;;;;2.50;0.52;;;;;;;;;;5045187;28;20053;-58
2021/12/18 11:46:29;;;;;;;1.00;0.60;;;;;;;;;;5046797;28;20060;-57
2021/12/18 11:48:56;;;;;;;0.40;0.40;;;;;;;;;;5043194;28;20049;-58
2021/12/18 11:51:23;;;;;;;0.90;0.47;;;;;;;;;;5046757;28;20060;-57
2021/12/18 11:53:50;;;;;;;0.55;0.50;;;;;;;;;;5044763;28;20045;-57
2021/12/18 11:56:17;;;;;;;0.70;0.50;;;;;;;;;;5048806;28;20049;-58
2021/12/18 11:58:44;;;;;;;0.90;0.50;;;;;;;;;;5045550;28;20057;-57
2021/12/18 12:01:17;;;;;;;0.98;0.63;;;;;;;;;;5047926;28;20111;-57
2021/12/18 12:03:46;;;;;;;0.60;0.50;;;;;;;;;;5044475;28;20061;-58
2021/12/18 12:06:25;;;;;;;0.50;0.40;;;;;;;;;;5048605;28;20068;-57
2021/12/18 12:09:13;;;;;;;0.88;0.50;;;;;;;;;;5063464;28;20047;-57
2021/12/18 12:11:49;;;;;;;0.77;0.40;;;;;;;;;;5068651;28;20056;-57
2021/12/18 12:14:20;;;;;;;1.63;0.75;;;;;;;;;;5059219;28;20048;-57
2021/12/18 12:17:04;;;;;;;2.83;0.90;;;;;;;;;;5048587;28;20156;-58
2021/12/18 12:19:59;;;;;;;1.73;0.82;;;;;;;;;;5051311;28;20056;-57
2021/12/18 12:22:43;;;;;;;0.98;0.60;;;;;;;;;;5068577;28;20044;-57
2021/12/18 12:25:11;;;;;;;2.17;0.85;;;;;;;;;;5056358;28;20483;-57
2021/12/18 12:27:39;;;;;;;1.60;0.80;;;;;;;;;;5049089;28;20057;-57
2021/12/18 12:30:07;;;;;;;0.85;0.52;;;;;;;;;;5046047;28;20510;-58
2021/12/18 12:32:35;;;;;;;1.15;0.63;;;;;;;;;;5017673;28;20102;-57
2021/12/18 12:35:05;;;;;;;1.35;0.70;;;;;;;;;;5045166;28;20057;-57
2021/12/18 12:37:36;;;;;;;2.05;0.60;;;;;;;;;;5048513;28;20068;-57
2021/12/18 12:40:06;;;;;;;2.10;0.80;;;;;;;;;;5055173;28;20088;-57
2021/12/18 12:42:35;;;;;;;0.50;0.40;;;;;;;;;;5047547;28;20135;-57
2021/12/18 12:45:05;;;;;;;0.98;0.60;;;;;;;;;;5052739;28;20079;-57
2021/12/18 12:47:32;;;;;;;2.50;0.95;;;;;;;;;;5072366;28;20056;-58
2021/12/18 12:50:01;;;;;;;1.33;0.60;;;;;;;;;;5072287;28;20132;-58
2021/12/18 12:52:49;;;;;;;1.10;0.68;;;;;;;;;;5070318;28;20125;-57
2021/12/18 12:55:19;;;;;;;2.17;0.40;;;;;;;;;;5069598;28;20053;-58
2021/12/18 12:57:46;;;;;;;0.73;0.47;;;;;;;;;;5061613;28;20057;-57
2021/12/18 13:00:36;;;;;;;0.60;0.50;;;;;;;;;;5051108;28;20506;-57
2021/12/18 13:03:30;;;;;;;1.65;0.80;;;;;;;;;;5069464;28;20053;-57
2021/12/18 13:06:00;;;;;;;1.77;0.73;;;;;;;;;;5069171;28;20057;-58
2021/12/18 13:08:27;;;;;;;10.77;4.13;;;;;;;;;;5072400;28;20052;-57
2021/12/18 13:10:58;;;;;;;4.97;2.00;;;;;;;;;;5070070;28;20083;-57
2021/12/18 13:13:29;;;;;;;1.60;0.80;;;;;;;;;;5049838;28;20191;-58
2021/12/18 13:15:58;;;;;;;1.48;0.75;;;;;;;;;;5051716;28;20059;-58
2021/12/18 13:18:25;;;;;;;1.67;0.63;;;;;;;;;;5048665;28;20087;-58
2021/12/18 13:20:55;;;;;;;1.70;0.55;;;;;;;;;;5052125;28;20057;-58
2021/12/18 13:23:24;;;;;;;1.85;0.60;;;;;;;;;;5047611;28;20049;-57
2021/12/18 13:25:54;;;;;;;0.70;0.52;;;;;;;;;;5051610;28;20119;-58
2021/12/18 13:28:21;;;;;;;1.08;0.50;;;;;;;;;;5046080;28;20161;-57
2021/12/18 13:30:51;;;;;;;2.03;0.50;;;;;;;;;;5070212;28;20097;-58
2021/12/18 13:33:23;;;;;;;0.88;0.50;;;;;;;;;;5068114;28;20140;-57
2021/12/18 13:35:54;;;;;;;1.38;0.50;;;;;;;;;;5067313;28;20107;-58
2021/12/18 13:38:22;;;;;;;1.15;0.60;;;;;;;;;;5064581;28;20049;-58
2021/12/18 13:40:51;;;;;;;1.27;0.60;;;;;;;;;;5070173;28;20139;-58
2021/12/18 13:43:17;;;;;;;;;;;;;;;;;;5066686;28;20044;-58
2021/12/18 13:45:51;;;;;;;1.77;0.50;;;;;;;;;;5071107;28;19993;-58
2021/12/18 13:48:20;;;;;;;0.88;0.47;;;;;;;;;;5068194;28;20056;-57
2021/12/18 13:50:52;;;;;;;1.77;0.65;;;;;;;;;;5070866;28;20052;-58
2021/12/18 13:53:20;;;;;;;0.80;0.50;;;;;;;;;;5061188;28;20135;-57
2021/12/18 13:55:47;;;;;;;2.43;0.70;;;;;;;;;;5050094;28;20053;-58
2021/12/18 13:58:18;;;;;;;2.20;0.80;;;;;;;;;;5047862;28;20052;-58
2021/12/18 14:01:02;;;;;;;1.45;0.80;;;;;;;;;;5050890;28;20143;-57
2021/12/18 14:03:31;;;;;;;4.57;1.05;;;;;;;;;;5048774;28;20049;-58
2021/12/18 14:05:59;;;;;;;1.63;1.00;;;;;;;;;;5050598;28;20053;-57
2021/12/18 14:08:26;;;;;;;2.05;1.10;;;;;;;;;;5047955;28;20052;-58
2021/12/18 14:10:53;;;;;;;3.13;1.23;;;;;;;;;;5051620;28;20114;-58
2021/12/18 14:13:21;;;;;;;2.55;1.08;;;;;;;;;;5068326;28;20052;-58
2021/12/18 14:15:48;;;;;;;2.90;1.17;;;;;;;;;;5050351;28;20083;-59
2021/12/18 14:18:34;;;;;;;2.30;1.20;;;;;;;;;;5050738;28;20056;-58
2021/12/18 14:21:01;;;;;;;6.22;1.10;;;;;;;;;;5065979;28;20045;-58
2021/12/18 14:23:31;;;;;;;1.33;0.70;;;;;;;;;;5049412;28;20116;-57
2021/12/18 14:26:20;;;;;;;3.10;1.20;;;;;;;;;;5065836;28;20064;-57
2021/12/18 14:28:48;;;;;;;3.03;1.27;;;;;;;;;;5070311;28;20045;-57
2021/12/18 14:31:14;;;;;;;;;;;;;;;;;;5066886;28;20144;-57
2021/12/18 14:33:51;;;;;;;2.13;0.90;;;;;;;;;;5069689;28;20281;-58
2021/12/18 14:36:18;;;;;;;2.22;1.30;;;;;;;;;;5064489;28;20106;-57
2021/12/18 14:38:56;;;;;;;2.63;1.25;;;;;;;;;;5052380;28;20049;-57
2021/12/18 14:41:22;;;;;;;5.53;1.90;;;;;;;;;;5065910;28;20072;-58
2021/12/18 14:43:59;;;;;;;3.70;1.48;;;;;;;;;;5069052;28;20141;-57
2021/12/18 14:46:26;;;;;;;4.97;1.88;;;;;;;;;;5043250;28;20110;-58
2021/12/18 14:48:52;;;;;;;5.10;2.08;;;;;;;;;;5048827;28;20052;-58
2021/12/18 14:51:25;;;;;;;5.70;2.13;;;;;;;;;;5059018;28;20052;-58
2021/12/18 14:53:57;;;;;;;3.88;1.77;;;;;;;;;;5068627;28;20064;-58
2021/12/18 14:56:24;;;;;;;4.00;1.60;;;;;;;;;;5051801;28;20112;-58
2021/12/18 14:58:51;;;;;;;2.95;1.30;;;;;;;;;;5049718;28;20057;-58
2021/12/18 15:01:20;;;;;;;6.25;1.92;;;;;;;;;;5046042;28;20056;-58
2021/12/18 15:03:48;;;;;;;;;;;;;;;;;;5066556;28;20056;-58
2021/12/18 15:06:17;;;;;;;4.22;1.77;;;;;;;;;;5060409;28;19920;-58
2021/12/18 15:08:49;;;;;;;2.58;1.40;;;;;;;;;;5068455;28;20502;-57
2021/12/18 15:11:17;;;;;;;4.13;1.63;;;;;;;;;;5062790;28;20124;-58
2021/12/18 15:13:47;;;;;;;6.03;2.50;;;;;;;;;;5065099;28;20079;-58
2021/12/18 15:16:28;;;;;;;5.38;2.25;;;;;;;;;;5057355;28;20141;-56
2021/12/18 15:18:59;;;;;;;5.88;2.15;;;;;;;;;;5061244;28;20110;-57
2021/12/18 15:21:26;;;;;;;5.88;2.30;;;;;;;;;;5050927;28;20059;-58
2021/12/18 15:23:53;;;;;;;4.20;2.00;;;;;;;;;;5070263;28;20048;-57